Time;durP1;ratioP1;P1;durP2;ratioP2;P2;SDS_P1;SDS_P2;PMS_P1;PMS_P2;Temp;Humidity;BMP_temperature;BMP_pressure;BME280_temperature;BME280_humidity;BME280_pressure;Samples;Min_cycle;Max_cycle;Signal;HPM_P1;HPM_P2
2021/07/04 00:02:15;;;;;;;7.93;7.27;;;20.30;1.00;;;;;;5044811;28;20800;-76
2021/07/04 00:04:43;;;;;;;7.73;7.13;;;20.30;1.00;;;;;;5050210;28;20485;-76
2021/07/04 00:07:10;;;;;;;8.47;7.67;;;20.30;1.00;;;;;;5038585;28;20438;-77
2021/07/04 00:09:38;;;;;;;7.67;7.07;;;20.20;1.00;;;;;;5048806;28;20449;-76
2021/07/04 00:12:07;;;;;;;10.20;8.10;;;20.20;1.00;;;;;;5046950;28;20562;-78
2021/07/04 00:14:33;;;;;;;8.50;7.80;;;20.30;1.00;;;;;;5049103;28;20453;-76
2021/07/04 00:17:00;;;;;;;8.73;8.03;;;20.20;1.00;;;;;;5046848;28;20440;-76
2021/07/04 00:19:27;;;;;;;8.50;7.70;;;20.20;1.00;;;;;;5046759;28;20489;-75
2021/07/04 00:21:54;;;;;;;8.50;7.63;;;20.20;1.00;;;;;;5045333;28;20491;-77
2021/07/04 00:24:20;;;;;;;10.50;8.60;;;20.20;1.00;;;;;;5048876;28;20486;-76
2021/07/04 00:26:49;;;;;;;9.43;8.60;;;20.20;1.00;;;;;;5046136;28;20955;-75
2021/07/04 00:29:15;;;;;;;8.40;7.70;;;20.20;1.00;;;;;;5044124;28;20593;-76
2021/07/04 00:31:42;;;;;;;9.93;7.57;;;20.20;1.00;;;;;;5044094;28;20464;-76
2021/07/04 00:34:09;;;;;;;8.93;8.20;;;20.10;1.00;;;;;;5044668;28;20543;-76
2021/07/04 00:36:35;;;;;;;8.40;7.60;;;20.10;1.00;;;;;;5038847;28;20546;-75
2021/07/04 00:39:02;;;;;;;8.40;7.70;;;20.10;1.00;;;;;;5031598;28;20541;-77
2021/07/04 00:41:29;;;;;;;8.83;7.93;;;20.10;1.00;;;;;;5047230;28;20456;-76
2021/07/04 00:43:57;;;;;;;9.07;8.17;;;20.00;1.00;;;;;;5044978;28;21432;-76
2021/07/04 00:46:24;;;;;;;9.10;8.20;;;20.00;1.00;;;;;;5053829;28;20454;-75
2021/07/04 00:48:50;;;;;;;9.13;8.23;;;20.00;1.00;;;;;;5046211;28;20487;-76
2021/07/04 00:51:17;;;;;;;8.60;7.73;;;20.00;1.00;;;;;;5045213;28;20591;-75
2021/07/04 00:53:44;;;;;;;8.83;8.00;;;20.00;1.00;;;;;;5047196;28;20465;-76
2021/07/04 00:56:10;;;;;;;9.80;8.90;;;20.00;1.00;;;;;;5043692;28;20466;-77
2021/07/04 00:58:38;;;;;;;12.97;8.77;;;19.90;1.00;;;;;;5047061;28;20468;-76
2021/07/04 01:01:06;;;;;;;8.70;7.93;;;19.90;1.00;;;;;;5048235;28;20995;-76
2021/07/04 01:03:32;;;;;;;10.00;9.17;;;19.90;1.00;;;;;;5051969;28;21543;-76
2021/07/04 01:05:59;;;;;;;9.33;8.53;;;19.90;1.00;;;;;;5042981;28;20536;-76
2021/07/04 01:08:27;;;;;;;9.93;9.07;;;19.90;1.00;;;;;;5052774;28;20463;-77
2021/07/04 01:10:53;;;;;;;9.60;8.80;;;19.80;1.00;;;;;;5037926;28;20452;-77
2021/07/04 01:13:20;;;;;;;8.90;8.20;;;19.80;1.00;;;;;;5039600;28;20562;-76
2021/07/04 01:15:47;;;;;;;9.07;8.27;;;19.80;1.00;;;;;;5045344;28;20520;-77
2021/07/04 01:18:15;;;;;;;9.50;8.60;;;19.80;1.00;;;;;;5050795;28;20439;-76
2021/07/04 01:20:42;;;;;;;9.93;9.03;;;19.70;1.00;;;;;;5042940;28;20452;-77
2021/07/04 01:23:12;;;;;;;10.30;9.30;;;19.70;1.00;;;;;;5047726;28;20466;-76
2021/07/04 01:25:44;;;;;;;8.53;7.83;;;19.70;1.00;;;;;;5041123;28;20480;-76
2021/07/04 01:28:11;;;;;;;10.27;9.37;;;19.70;1.00;;;;;;5051630;28;20440;-76
2021/07/04 01:30:39;;;;;;;10.03;9.13;;;19.70;1.00;;;;;;5042393;28;21161;-75
2021/07/04 01:33:06;;;;;;;10.70;9.80;;;19.70;1.00;;;;;;5048079;28;20460;-76
2021/07/04 01:35:33;;;;;;;9.80;8.93;;;19.60;1.00;;;;;;5041041;28;20935;-76
2021/07/04 01:38:00;;;;;;;9.50;8.80;;;19.50;1.00;;;;;;5045222;28;20564;-75
2021/07/04 01:40:29;;;;;;;9.83;8.83;;;19.50;1.00;;;;;;5044765;28;20541;-76
2021/07/04 01:42:56;;;;;;;9.77;8.80;;;19.50;1.00;;;;;;5039530;28;20614;-76
2021/07/04 01:45:23;;;;;;;11.00;10.10;;;19.50;1.00;;;;;;5047459;28;21130;-75
2021/07/04 01:47:51;;;;;;;10.70;9.80;;;19.40;1.00;;;;;;5045187;28;20464;-75
2021/07/04 01:50:24;;;;;;;10.40;9.50;;;19.40;1.00;;;;;;5050291;28;20500;-76
2021/07/04 01:52:51;;;;;;;10.33;9.37;;;19.40;1.00;;;;;;5044104;28;21291;-76
2021/07/04 01:55:18;;;;;;;10.27;9.37;;;19.40;1.00;;;;;;5053653;28;20543;-75
2021/07/04 01:57:47;;;;;;;10.27;9.43;;;19.40;1.00;;;;;;5042501;28;20468;-76
2021/07/04 02:00:17;;;;;;;11.53;10.40;;;19.40;1.00;;;;;;5043456;28;21081;-76
2021/07/04 02:02:45;;;;;;;11.23;10.33;;;19.40;1.00;;;;;;5041556;28;21441;-75
2021/07/04 02:05:12;;;;;;;10.63;9.80;;;19.40;1.00;;;;;;5046803;28;20969;-76
2021/07/04 02:07:39;;;;;;;10.57;9.57;;;19.40;1.00;;;;;;5041072;28;20456;-76
2021/07/04 02:10:08;;;;;;;9.77;8.87;;;19.40;1.00;;;;;;5046186;28;20557;-75
2021/07/04 02:12:36;;;;;;;9.90;8.93;;;19.40;1.00;;;;;;5046700;28;20468;-76
2021/07/04 02:15:09;;;;;;;9.87;8.93;;;19.40;1.00;;;;;;5046481;28;20440;-75
2021/07/04 02:17:36;;;;;;;11.07;10.03;;;19.40;1.00;;;;;;5045831;28;20989;-76
2021/07/04 02:20:32;;;;;;;10.03;9.23;;;19.40;1.00;;;;;;5044055;28;20451;-75
2021/07/04 02:22:59;;;;;;;11.10;10.10;;;19.40;1.00;;;;;;5044142;28;20479;-76
2021/07/04 02:25:26;;;;;;;10.57;9.67;;;19.40;1.00;;;;;;5043286;28;20548;-76
2021/07/04 02:27:52;;;;;;;11.47;10.47;;;19.40;1.00;;;;;;5058376;28;20440;-75
2021/07/04 02:30:21;;;;;;;11.13;10.13;;;19.40;1.00;;;;;;5041442;28;21274;-75
2021/07/04 02:32:47;;;;;;;10.33;9.43;;;19.40;1.00;;;;;;5047995;28;20673;-76
2021/07/04 02:35:15;;;;;;;11.67;9.70;;;19.30;1.00;;;;;;5042024;28;20862;-76
2021/07/04 02:37:41;;;;;;;10.73;9.70;;;19.30;1.00;;;;;;5049467;28;20661;-76
2021/07/04 02:40:09;;;;;;;10.33;9.50;;;19.30;1.00;;;;;;5043802;28;20525;-76
2021/07/04 02:42:36;;;;;;;10.57;9.67;;;19.30;1.00;;;;;;5057977;28;20466;-76
2021/07/04 02:45:04;;;;;;;10.43;9.43;;;19.30;1.00;;;;;;5071717;28;20476;-77
2021/07/04 02:47:32;;;;;;;10.53;9.70;;;19.30;1.00;;;;;;5065711;28;20428;-77
2021/07/04 02:49:59;;;;;;;10.70;9.80;;;19.30;1.00;;;;;;5072818;28;20401;-78
2021/07/04 02:52:26;;;;;;;12.00;10.90;;;19.30;1.00;;;;;;5063705;28;20486;-76
2021/07/04 02:54:53;;;;;;;11.13;10.10;;;19.30;1.00;;;;;;5066074;28;21172;-76
2021/07/04 02:57:19;;;;;;;11.07;10.07;;;19.30;1.00;;;;;;5060198;28;20544;-76
2021/07/04 02:59:46;;;;;;;11.37;10.27;;;19.30;1.00;;;;;;5066071;28;20436;-78
2021/07/04 03:02:13;;;;;;;10.70;9.80;;;19.30;1.00;;;;;;5055836;28;20488;-77
2021/07/04 03:04:41;;;;;;;11.67;10.70;;;19.30;1.00;;;;;;5059149;28;20529;-76
2021/07/04 03:07:07;;;;;;;12.07;10.97;;;19.30;1.00;;;;;;5040731;28;20479;-77
2021/07/04 03:09:35;;;;;;;11.57;10.67;;;19.30;1.00;;;;;;5051783;28;20469;-77
2021/07/04 03:12:01;;;;;;;10.60;9.80;;;19.40;1.00;;;;;;5043343;28;20459;-77
2021/07/04 03:14:29;;;;;;;10.77;9.87;;;19.40;1.00;;;;;;5047591;28;21392;-77
2021/07/04 03:16:55;;;;;;;10.30;9.40;;;19.40;1.00;;;;;;5049338;28;20485;-77
2021/07/04 03:19:22;;;;;;;10.73;9.83;;;19.40;1.00;;;;;;5042547;28;21171;-75
2021/07/04 03:21:50;;;;;;;11.30;10.13;;;19.40;1.00;;;;;;5050873;28;20463;-76
2021/07/04 03:24:17;;;;;;;11.70;10.70;;;19.30;1.00;;;;;;5040414;28;20460;-77
2021/07/04 03:26:44;;;;;;;11.90;10.90;;;19.30;1.00;;;;;;5054069;28;21046;-77
2021/07/04 03:29:11;;;;;;;11.63;10.60;;;19.30;1.00;;;;;;5045500;28;20459;-76
2021/07/04 03:31:37;;;;;;;12.13;11.07;;;19.30;1.00;;;;;;5048387;28;20452;-76
2021/07/04 03:34:04;;;;;;;11.90;10.73;;;19.30;1.00;;;;;;5039828;28;20527;-76
2021/07/04 03:36:31;;;;;;;11.83;10.73;;;19.30;1.00;;;;;;5050874;28;20466;-76
2021/07/04 03:38:58;;;;;;;11.77;10.70;;;19.30;1.00;;;;;;5042943;28;21153;-76
2021/07/04 03:41:25;;;;;;;12.10;10.90;;;19.30;1.00;;;;;;5052157;28;21093;-76
2021/07/04 03:43:52;;;;;;;10.93;10.10;;;19.30;1.00;;;;;;5044836;28;21189;-75
2021/07/04 03:46:19;;;;;;;10.87;9.93;;;19.30;1.00;;;;;;5041470;28;20568;-75
2021/07/04 03:48:46;;;;;;;12.00;11.00;;;19.40;1.00;;;;;;5044838;28;20449;-76
2021/07/04 03:51:13;;;;;;;11.37;10.40;;;19.40;1.00;;;;;;5044472;28;20444;-76
2021/07/04 03:53:39;;;;;;;12.20;11.10;;;19.30;1.00;;;;;;5045654;28;20499;-75
2021/07/04 03:56:07;;;;;;;12.00;10.87;;;19.30;1.00;;;;;;5041098;28;20464;-76
2021/07/04 03:58:34;;;;;;;13.33;12.23;;;19.40;1.00;;;;;;5045597;28;21256;-75
2021/07/04 04:01:01;;;;;;;12.37;11.30;;;19.40;1.00;;;;;;5044358;28;21084;-76
2021/07/04 04:03:27;;;;;;;11.67;10.60;;;19.40;1.00;;;;;;5050535;28;20441;-77
2021/07/04 04:05:56;;;;;;;13.03;11.80;;;19.40;1.00;;;;;;5040950;28;20453;-76
2021/07/04 04:08:23;;;;;;;11.80;10.80;;;19.40;1.00;;;;;;5045263;28;20535;-75
2021/07/04 04:10:49;;;;;;;14.30;11.10;;;19.50;1.00;;;;;;5038084;28;20555;-75
2021/07/04 04:13:18;;;;;;;13.03;11.90;;;19.50;1.00;;;;;;5043426;28;20448;-77
2021/07/04 04:15:44;;;;;;;12.40;11.30;;;19.50;1.00;;;;;;5038206;28;20440;-77
2021/07/04 04:18:11;;;;;;;12.30;10.97;;;19.60;1.00;;;;;;5047512;28;21234;-76
2021/07/04 04:20:38;;;;;;;12.53;11.23;;;19.60;1.00;;;;;;5049882;28;20451;-76
2021/07/04 04:23:05;;;;;;;12.03;10.73;;;19.60;1.00;;;;;;5044885;28;20449;-76
2021/07/04 04:25:36;;;;;;;12.30;11.00;;;19.70;1.00;;;;;;5052022;28;20452;-76
2021/07/04 04:28:04;;;;;;;13.23;12.10;;;19.70;1.00;;;;;;5044350;28;20453;-77
2021/07/04 04:30:33;;;;;;;13.33;12.13;;;19.70;1.00;;;;;;5056934;28;20464;-77
2021/07/04 04:32:59;;;;;;;12.57;11.37;;;19.80;1.00;;;;;;5043830;28;20436;-77
2021/07/04 04:35:26;;;;;;;12.73;11.50;;;19.80;1.00;;;;;;5046965;28;20445;-77
2021/07/04 04:37:53;;;;;;;13.53;12.17;;;19.80;1.00;;;;;;5042817;28;20480;-76
2021/07/04 04:40:20;;;;;;;12.50;11.40;;;19.70;1.00;;;;;;5050773;28;20456;-76
2021/07/04 04:42:46;;;;;;;12.77;11.50;;;19.60;1.00;;;;;;5042025;28;21363;-76
2021/07/04 04:45:13;;;;;;;11.93;10.80;;;19.60;1.00;;;;;;5045404;28;20460;-76
2021/07/04 04:47:41;;;;;;;14.20;12.80;;;19.50;1.00;;;;;;5047725;28;20456;-75
2021/07/04 04:50:09;;;;;;;13.30;12.20;;;19.40;1.00;;;;;;5050062;28;20435;-76
2021/07/04 04:52:37;;;;;;;13.43;12.23;;;19.30;1.00;;;;;;5048300;28;20448;-75
2021/07/04 04:55:05;;;;;;;13.43;12.23;;;19.30;1.00;;;;;;5044646;28;20487;-76
2021/07/04 04:57:31;;;;;;;16.43;12.70;;;19.20;1.00;;;;;;5046558;28;20464;-76
2021/07/04 04:59:58;;;;;;;14.27;13.07;;;19.20;1.00;;;;;;5041294;28;20507;-76
2021/07/04 05:02:25;;;;;;;13.07;11.97;;;19.20;1.00;;;;;;5056539;28;20458;-76
2021/07/04 05:04:53;;;;;;;13.83;12.20;;;19.10;1.00;;;;;;5045439;28;20996;-75
2021/07/04 05:07:20;;;;;;;12.80;11.70;;;19.10;1.00;;;;;;5047121;28;20464;-75
2021/07/04 05:09:47;;;;;;;16.23;14.73;;;19.10;1.00;;;;;;5058238;28;20531;-75
2021/07/04 05:12:13;;;;;;;13.67;12.50;;;19.10;1.00;;;;;;5051981;28;21272;-76
2021/07/04 05:14:40;;;;;;;14.60;13.20;;;19.10;1.00;;;;;;5041799;28;20934;-76
2021/07/04 05:17:07;;;;;;;14.00;12.63;;;19.10;1.00;;;;;;5046045;28;21178;-76
2021/07/04 05:19:34;;;;;;;13.70;12.40;;;19.10;1.00;;;;;;5042828;28;20463;-76
2021/07/04 05:22:01;;;;;;;13.50;12.27;;;19.10;1.00;;;;;;5046690;28;20460;-77
2021/07/04 05:24:28;;;;;;;27.90;25.40;;;19.10;1.00;;;;;;5046486;28;20449;-76
2021/07/04 05:26:55;;;;;;;13.33;12.23;;;19.10;1.00;;;;;;5051029;28;20476;-76
2021/07/04 05:29:21;;;;;;;14.73;13.37;;;19.20;1.00;;;;;;5050310;28;20455;-77
2021/07/04 05:31:48;;;;;;;15.30;14.00;;;19.20;1.00;;;;;;5044726;28;20473;-76
2021/07/04 05:34:15;;;;;;;14.17;12.97;;;19.30;1.00;;;;;;5051780;28;20460;-76
2021/07/04 05:36:45;;;;;;;15.90;14.50;;;19.40;1.00;;;;;;5041985;28;20457;-77
2021/07/04 05:39:13;;;;;;;15.30;14.10;;;19.50;1.00;;;;;;5051835;28;20460;-76
2021/07/04 05:41:40;;;;;;;14.40;13.20;;;19.60;1.00;;;;;;5040387;28;20442;-76
2021/07/04 05:44:07;;;;;;;14.03;12.83;;;19.70;1.00;;;;;;5052181;28;20452;-76
2021/07/04 05:46:34;;;;;;;15.30;14.00;;;19.80;1.00;;;;;;5044189;28;20438;-76
2021/07/04 05:49:02;;;;;;;15.13;13.87;;;19.80;1.00;;;;;;5036164;28;20452;-77
2021/07/04 05:51:29;;;;;;;15.10;13.80;;;19.90;1.00;;;;;;5040479;28;20432;-78
2021/07/04 05:53:56;;;;;;;13.20;12.20;;;20.00;1.00;;;;;;5046858;28;20442;-77
2021/07/04 05:56:24;;;;;;;14.87;13.60;;;20.10;1.00;;;;;;5044625;28;20451;-77
2021/07/04 05:58:51;;;;;;;15.13;13.83;;;20.10;1.00;;;;;;5045947;28;20532;-77
2021/07/04 06:01:18;;;;;;;16.00;14.50;;;20.20;1.00;;;;;;5048445;28;20464;-77
2021/07/04 06:03:45;;;;;;;15.60;14.30;;;20.20;1.00;;;;;;5042534;28;20449;-75
2021/07/04 06:06:12;;;;;;;14.57;13.27;;;20.30;1.00;;;;;;5050114;28;20461;-75
2021/07/04 06:08:38;;;;;;;15.37;14.07;;;20.40;1.00;;;;;;5042700;28;20461;-76
2021/07/04 06:11:05;;;;;;;15.13;13.63;;;20.40;1.00;;;;;;5050620;28;20441;-75
2021/07/04 06:13:33;;;;;;;15.00;13.90;;;20.50;1.00;;;;;;5042023;28;20564;-76
2021/07/04 06:16:00;;;;;;;16.67;15.20;;;20.60;1.00;;;;;;5047350;28;20571;-77
2021/07/04 06:18:28;;;;;;;16.63;15.03;;;20.70;1.00;;;;;;5043538;28;20589;-75
2021/07/04 06:20:55;;;;;;;15.10;13.90;;;20.80;1.00;;;;;;5050483;28;20446;-76
2021/07/04 06:23:22;;;;;;;15.43;14.13;;;20.90;1.00;;;;;;5040875;28;20478;-75
2021/07/04 06:25:49;;;;;;;15.10;13.70;;;21.20;1.00;;;;;;5044621;28;21383;-75
2021/07/04 06:28:16;;;;;;;15.07;13.73;;;21.30;1.00;;;;;;5046598;28;20552;-77
2021/07/04 06:30:44;;;;;;;14.90;13.60;;;21.50;1.00;;;;;;5045288;28;20435;-76
2021/07/04 06:33:11;;;;;;;16.40;15.20;;;21.60;1.00;;;;;;5042222;28;20538;-76
2021/07/04 06:35:38;;;;;;;14.37;13.07;;;21.60;1.00;;;;;;5048507;28;20450;-77
2021/07/04 06:38:05;;;;;;;13.43;12.33;;;21.70;1.00;;;;;;5050259;28;20550;-77
2021/07/04 06:40:32;;;;;;;13.80;12.53;;;21.80;1.00;;;;;;5045756;28;20524;-75
2021/07/04 06:42:59;;;;;;;13.20;12.10;;;21.90;1.00;;;;;;5048051;28;20444;-78
2021/07/04 06:45:25;;;;;;;14.17;12.97;;;22.10;1.00;;;;;;5040837;28;20452;-77
2021/07/04 06:47:53;;;;;;;12.20;11.10;;;22.00;1.00;;;;;;5056366;28;21105;-76
2021/07/04 06:50:21;;;;;;;12.60;11.60;;;22.10;1.00;;;;;;5042757;28;20526;-76
2021/07/04 06:52:49;;;;;;;12.40;11.23;;;22.30;1.00;;;;;;5047804;28;20447;-76
2021/07/04 06:55:16;;;;;;;17.50;11.70;;;22.50;1.00;;;;;;5041019;28;20953;-76
2021/07/04 06:57:42;;;;;;;11.00;10.00;;;22.60;1.00;;;;;;5045550;28;20499;-73
2021/07/04 07:00:11;;;;;;;11.40;10.50;;;22.70;1.00;;;;;;5043419;28;20449;-77
2021/07/04 07:02:39;;;;;;;11.50;10.40;;;22.70;1.00;;;;;;5049887;28;20448;-76
2021/07/04 07:05:09;;;;;;;10.10;9.30;;;22.80;1.00;;;;;;5039345;28;20980;-77
2021/07/04 07:07:35;;;;;;;11.40;10.50;;;22.70;1.00;;;;;;5041000;28;20460;-76
2021/07/04 07:10:02;;;;;;;11.50;10.50;;;22.70;1.00;;;;;;5051748;28;21064;-77
2021/07/04 07:12:29;;;;;;;10.73;9.80;;;22.60;1.00;;;;;;5043208;28;20909;-76
2021/07/04 07:14:56;;;;;;;10.23;9.50;;;22.50;1.00;;;;;;5047000;28;20459;-77
2021/07/04 07:17:23;;;;;;;10.70;9.80;;;22.40;1.00;;;;;;5045289;28;20490;-76
2021/07/04 07:19:50;;;;;;;10.13;9.33;;;22.40;1.00;;;;;;5050375;28;20432;-77
2021/07/04 07:22:18;;;;;;;10.33;9.40;;;22.50;1.00;;;;;;5043868;28;21112;-76
2021/07/04 07:24:45;;;;;;;10.23;9.30;;;22.60;1.00;;;;;;5055047;28;20802;-76
2021/07/04 07:27:12;;;;;;;10.77;9.77;;;22.70;1.00;;;;;;5042238;28;20457;-77
2021/07/04 07:29:38;;;;;;;9.00;8.20;;;22.80;1.00;;;;;;5052629;28;21210;-76
2021/07/04 07:32:06;;;;;;;8.73;8.07;;;22.90;1.00;;;;;;5043731;28;20457;-76
2021/07/04 07:34:33;;;;;;;9.20;8.30;;;23.10;1.00;;;;;;5042323;28;20450;-76
2021/07/04 07:37:00;;;;;;;9.63;7.70;;;23.20;1.00;;;;;;5045046;28;20452;-76
2021/07/04 07:39:28;;;;;;;8.57;7.97;;;23.50;1.00;;;;;;5039547;28;20441;-77
2021/07/04 07:41:54;;;;;;;7.60;6.90;;;23.70;1.00;;;;;;5045871;28;20471;-76
2021/07/04 07:44:21;;;;;;;8.10;7.30;;;23.80;1.00;;;;;;5044349;28;20474;-77
2021/07/04 07:46:49;;;;;;;5.30;4.87;;;23.90;1.00;;;;;;5050054;28;20457;-76
2021/07/04 07:49:16;;;;;;;6.50;6.00;;;24.00;1.00;;;;;;5041115;28;20438;-78
2021/07/04 07:51:43;;;;;;;8.00;7.40;;;24.20;1.00;;;;;;5051174;28;20456;-77
2021/07/04 07:54:10;;;;;;;7.47;6.87;;;24.30;1.00;;;;;;5044022;28;20448;-76
2021/07/04 07:56:38;;;;;;;7.23;6.53;;;24.30;1.00;;;;;;5054143;28;20453;-76
2021/07/04 07:59:05;;;;;;;7.60;6.90;;;24.40;1.00;;;;;;5043117;28;20567;-77
2021/07/04 08:01:32;;;;;;;6.70;6.20;;;24.50;1.00;;;;;;5054838;28;20462;-77
2021/07/04 08:03:59;;;;;;;7.73;7.10;;;24.60;1.00;;;;;;5047119;28;20439;-78
2021/07/04 08:06:25;;;;;;;7.97;7.27;;;24.70;1.00;;;;;;5049494;28;20459;-76
2021/07/04 08:08:52;;;;;;;7.73;7.10;;;24.70;1.00;;;;;;5045672;28;20466;-76
2021/07/04 08:11:19;;;;;;;7.40;6.80;;;25.00;1.00;;;;;;5047553;28;20456;-78
2021/07/04 08:13:47;;;;;;;7.30;6.70;;;25.10;1.00;;;;;;5048543;28;20533;-77
2021/07/04 08:16:16;;;;;;;6.80;6.30;;;25.20;1.00;;;;;;5047246;28;20452;-76
2021/07/04 08:18:43;;;;;;;6.20;5.70;;;25.20;1.00;;;;;;5048839;28;20459;-76
2021/07/04 08:21:10;;;;;;;7.00;5.93;;;25.20;1.00;;;;;;5050605;28;20470;-77
2021/07/04 08:23:37;;;;;;;7.63;7.03;;;25.30;1.00;;;;;;5054520;28;20486;-76
2021/07/04 08:26:04;;;;;;;6.83;6.13;;;25.40;1.00;;;;;;5047231;28;21114;-78
2021/07/04 08:28:30;;;;;;;9.07;7.00;;;25.60;1.00;;;;;;5049151;28;20448;-77
2021/07/04 08:30:58;;;;;;;6.93;6.43;;;25.90;1.00;;;;;;5043767;28;21001;-77
2021/07/04 08:33:27;;;;;;;7.47;6.73;;;25.80;1.00;;;;;;5058175;28;20470;-75
2021/07/04 08:35:54;;;;;;;7.00;6.40;;;26.00;1.00;;;;;;5046833;28;20461;-76
2021/07/04 08:38:20;;;;;;;7.40;6.80;;;26.30;1.00;;;;;;5050767;28;20461;-78
2021/07/04 08:40:47;;;;;;;6.90;6.50;;;26.50;1.00;;;;;;5049183;28;20455;-77
2021/07/04 08:43:25;;;;;;;7.13;6.53;;;26.70;1.00;;;;;;5049333;28;20425;-77
2021/07/04 08:45:52;;;;;;;7.03;6.43;;;27.10;1.00;;;;;;5049457;28;20465;-75
2021/07/04 08:48:20;;;;;;;7.60;7.00;;;27.20;1.00;;;;;;5049834;28;20457;-76
2021/07/04 08:50:47;;;;;;;6.93;6.43;;;27.20;1.00;;;;;;5049559;28;20938;-76
2021/07/04 08:53:14;;;;;;;6.77;6.27;;;27.00;1.00;;;;;;5044206;28;20462;-76
2021/07/04 08:55:42;;;;;;;7.20;6.60;;;27.10;1.00;;;;;;5050972;28;20489;-76
2021/07/04 08:58:09;;;;;;;6.30;5.83;;;27.10;1.00;;;;;;5043794;28;20473;-76
2021/07/04 09:00:35;;;;;;;6.20;5.70;;;27.30;1.00;;;;;;5050956;28;20430;-77
2021/07/04 09:03:24;;;;;;;5.10;4.80;;;27.40;1.00;;;;;;5042354;28;20458;-76
2021/07/04 09:05:51;;;;;;;6.63;6.10;;;27.30;1.00;;;;;;5042772;28;20512;-77
2021/07/04 09:08:19;;;;;;;6.23;5.73;;;27.40;1.00;;;;;;5056683;28;20463;-77
2021/07/04 09:10:46;;;;;;;7.17;6.50;;;27.30;1.00;;;;;;5040422;28;20451;-78
2021/07/04 09:13:25;;;;;;;5.87;5.37;;;27.40;1.00;;;;;;5036985;28;21185;-78
2021/07/04 09:16:03;;;;;;;6.97;6.40;;;27.40;1.00;;;;;;5041656;28;20456;-77
2021/07/04 09:18:31;;;;;;;5.87;5.37;;;27.50;1.00;;;;;;5056368;28;21010;-77
2021/07/04 09:20:58;;;;;;;7.47;6.77;;;27.70;1.00;;;;;;5039173;28;20471;-77
2021/07/04 09:23:36;;;;;;;6.80;6.30;;;27.90;1.00;;;;;;5045995;28;20458;-76
2021/07/04 09:26:02;;;;;;;6.50;6.00;;;27.80;1.00;;;;;;5043104;28;20464;-76
2021/07/04 09:28:30;;;;;;;9.30;6.27;;;27.90;1.00;;;;;;5042952;28;20439;-77
2021/07/04 09:30:58;;;;;;;6.57;6.07;;;28.00;1.00;;;;;;5044855;28;20466;-76
2021/07/04 09:33:28;;;;;;;6.10;5.60;;;28.30;1.00;;;;;;5044204;28;20996;-77
2021/07/04 09:35:58;;;;;;;6.33;5.83;;;28.30;1.00;;;;;;5048908;28;20498;-76
2021/07/04 09:38:29;;;;;;;7.20;6.70;;;28.40;1.00;;;;;;5044616;28;20563;-77
2021/07/04 09:40:56;;;;;;;6.90;5.43;;;28.30;1.00;;;;;;5045676;28;20536;-76
2021/07/04 09:43:23;;;;;;;7.50;6.80;;;28.60;1.00;;;;;;5042732;28;20490;-76
2021/07/04 09:45:53;;;;;;;6.27;5.77;;;29.20;1.00;;;;;;5053994;28;20468;-77
2021/07/04 09:48:22;;;;;;;7.77;7.17;;;30.10;1.00;;;;;;5044685;28;21199;-76
2021/07/04 09:50:51;;;;;;;6.63;6.13;;;31.20;1.00;;;;;;5053635;28;20430;-76
2021/07/04 09:53:21;;;;;;;6.40;5.80;;;31.60;1.00;;;;;;5045619;28;20462;-76
2021/07/04 09:55:51;;;;;;;8.30;7.60;;;32.30;1.00;;;;;;5045696;28;21038;-77
2021/07/04 09:58:20;;;;;;;6.33;5.90;;;32.90;1.00;;;;;;5052476;28;20565;-77
2021/07/04 10:00:47;;;;;;;7.70;6.70;;;32.80;1.00;;;;;;5040336;28;21032;-77
2021/07/04 10:03:16;;;;;;;6.07;5.57;;;32.10;1.00;;;;;;5051044;28;20522;-77
2021/07/04 10:05:59;;;;;;;7.60;7.00;;;31.90;1.00;;;;;;5045052;28;20974;-77
2021/07/04 10:08:29;;;;;;;6.90;6.30;;;31.70;1.00;;;;;;5047712;28;20484;-77
2021/07/04 10:10:58;;;;;;;6.13;5.67;;;31.70;1.00;;;;;;5050542;28;20988;-77
2021/07/04 10:13:25;;;;;;;6.87;6.27;;;31.70;1.00;;;;;;5044420;28;20479;-77
2021/07/04 10:15:52;;;;;;;6.93;6.33;;;31.50;1.00;;;;;;5046559;28;20462;-77
2021/07/04 10:18:20;;;;;;;5.77;5.27;;;31.60;1.00;;;;;;5045092;28;21629;-77
2021/07/04 10:20:49;;;;;;;6.37;5.87;;;31.80;1.00;;;;;;5044779;28;21369;-77
2021/07/04 10:23:19;;;;;;;7.83;7.13;;;32.20;1.00;;;;;;5040499;28;20468;-76
2021/07/04 10:25:48;;;;;;;6.70;6.10;;;32.50;1.00;;;;;;5044019;28;20467;-76
2021/07/04 10:28:17;;;;;;;6.13;5.53;;;33.30;1.00;;;;;;5044285;28;21298;-76
2021/07/04 10:30:44;;;;;;;6.70;6.00;;;33.50;1.00;;;;;;5042519;28;20440;-77
2021/07/04 10:33:19;;;;;;;6.80;6.30;;;33.90;1.00;;;;;;5045623;28;20458;-77
2021/07/04 10:36:14;;;;;;;7.27;6.67;;;33.50;1.00;;;;;;5043997;28;20451;-75
2021/07/04 10:38:44;;;;;;;7.30;6.70;;;33.00;1.00;;;;;;5047740;28;20555;-76
2021/07/04 10:41:15;;;;;;;7.30;5.70;;;32.50;1.00;;;;;;5043562;28;20460;-76
2021/07/04 10:43:51;;;;;;;7.93;5.70;;;32.90;1.00;;;;;;5052030;28;20979;-76
2021/07/04 10:46:18;;;;;;;6.03;5.53;;;34.20;1.00;;;;;;5042234;28;20866;-77
2021/07/04 10:48:55;;;;;;;6.23;5.70;;;34.80;1.00;;;;;;5050939;28;20432;-76
2021/07/04 10:51:23;;;;;;;5.97;5.47;;;34.60;1.00;;;;;;5047893;28;21310;-76
2021/07/04 10:53:52;;;;;;;5.60;5.20;;;34.30;1.00;;;;;;5043627;28;20460;-76
2021/07/04 10:56:46;;;;;;;7.10;5.80;;;33.60;1.00;;;;;;5045562;28;20456;-75
2021/07/04 10:59:14;;;;;;;6.90;6.30;;;33.10;1.00;;;;;;5042822;28;20474;-76
2021/07/04 11:01:53;;;;;;;6.23;5.73;;;33.40;1.00;;;;;;5042022;28;20536;-76
2021/07/04 11:04:53;;;;;;;7.30;6.60;;;33.50;1.00;;;;;;5046627;28;20464;-75
2021/07/04 11:07:20;;;;;;;11.13;10.03;;;33.30;1.00;;;;;;5043519;28;20533;-75
2021/07/04 11:10:14;;;;;;;5.87;5.37;;;33.10;1.00;;;;;;5049798;28;20448;-75
2021/07/04 11:12:42;;;;;;;6.10;5.60;;;32.50;1.00;;;;;;5046174;28;21213;-76
2021/07/04 11:15:29;;;;;;;8.27;7.67;;;32.00;1.00;;;;;;5047040;28;20949;-76
2021/07/04 11:18:07;;;;;;;6.00;5.60;;;31.80;1.00;;;;;;5050900;28;20460;-76
2021/07/04 11:20:50;;;;;;;6.60;6.10;;;31.30;1.00;;;;;;5048011;28;20439;-77
2021/07/04 11:23:23;;;;;;;6.30;5.80;;;31.00;1.00;;;;;;5051267;28;20445;-77
2021/07/04 11:25:53;;;;;;;5.93;5.43;;;30.90;1.00;;;;;;5044983;28;20466;-77
2021/07/04 11:28:23;;;;;;;6.77;6.17;;;31.00;1.00;;;;;;5043486;28;20475;-76
2021/07/04 11:30:52;;;;;;;6.73;6.17;;;31.00;1.00;;;;;;5041226;28;20454;-76
2021/07/04 11:33:38;;;;;;;6.40;5.90;;;31.20;1.00;;;;;;5050129;28;20552;-76
2021/07/04 11:36:07;;;;;;;6.30;5.80;;;31.20;1.00;;;;;;5044210;28;20467;-77
2021/07/04 11:38:37;;;;;;;7.17;6.47;;;31.10;1.00;;;;;;5040629;28;20550;-77
2021/07/04 11:41:08;;;;;;;7.03;6.43;;;31.20;1.00;;;;;;5048067;28;20442;-77
2021/07/04 11:43:41;;;;;;;7.57;6.97;;;31.30;1.00;;;;;;5046752;28;20450;-77
2021/07/04 11:46:09;;;;;;;6.40;5.90;;;31.00;1.00;;;;;;5046537;28;20482;-76
2021/07/04 11:48:51;;;;;;;8.60;8.00;;;31.20;1.00;;;;;;5040585;28;20456;-76
2021/07/04 11:51:30;;;;;;;6.90;6.40;;;31.30;1.00;;;;;;5057086;28;20452;-76
2021/07/04 11:54:00;;;;;;;6.83;6.17;;;30.90;1.00;;;;;;5042205;28;20465;-76
2021/07/04 11:56:27;;;;;;;7.13;6.60;;;30.80;1.00;;;;;;5050579;28;21220;-76
2021/07/04 11:59:09;;;;;;;6.73;6.13;;;30.80;1.00;;;;;;5042707;28;20499;-76
2021/07/04 12:01:48;;;;;;;6.27;5.80;;;30.70;1.00;;;;;;5045717;28;21404;-77
2021/07/04 12:04:16;;;;;;;6.70;6.10;;;31.00;1.00;;;;;;5042372;28;20522;-77
2021/07/04 12:06:58;;;;;;;6.60;6.00;;;31.70;1.00;;;;;;5043210;28;20500;-77
2021/07/04 12:09:39;;;;;;;6.70;6.20;;;32.20;1.00;;;;;;5051259;28;20490;-77
2021/07/04 12:12:07;;;;;;;6.53;6.03;;;32.10;1.00;;;;;;5041589;28;20448;-76
2021/07/04 12:14:36;;;;;;;6.73;6.23;;;32.00;1.00;;;;;;5049682;28;20535;-76
2021/07/04 12:17:26;;;;;;;6.07;5.67;;;32.30;1.00;;;;;;5043220;28;21013;-77
2021/07/04 12:20:06;;;;;;;6.57;6.07;;;33.00;1.00;;;;;;5040913;28;20495;-77
2021/07/04 12:22:35;;;;;;;5.80;5.50;;;33.80;1.00;;;;;;5045515;28;21174;-76
2021/07/04 12:25:10;;;;;;;6.43;5.93;;;34.40;1.00;;;;;;5042485;28;20463;-77
2021/07/04 12:27:38;;;;;;;5.80;5.40;;;35.10;1.00;;;;;;5049821;28;20570;-77
2021/07/04 12:30:16;;;;;;;6.37;5.87;;;35.80;1.00;;;;;;5037744;28;21244;-77
2021/07/04 12:32:46;;;;;;;7.53;6.17;;;36.50;1.00;;;;;;5048343;28;20490;-77
2021/07/04 12:35:22;;;;;;;6.17;5.77;;;37.70;1.00;;;;;;5041672;28;21414;-77
2021/07/04 12:37:50;;;;;;;6.17;5.67;;;38.80;1.00;;;;;;5047107;28;20458;-77
2021/07/04 12:40:19;;;;;;;5.77;5.37;;;38.90;1.00;;;;;;5045553;28;20468;-77
2021/07/04 12:42:45;;;;;;;6.50;6.00;;;39.10;1.00;;;;;;5043687;28;20476;-78
2021/07/04 12:45:17;;;;;;;6.17;5.67;;;38.80;1.00;;;;;;5051450;28;20436;-77
2021/07/04 12:47:44;;;;;;;5.43;4.80;;;38.90;1.00;;;;;;5047163;28;20554;-77
2021/07/04 12:50:14;;;;;;;5.67;5.27;;;38.80;1.00;;;;;;5053851;28;20540;-76
2021/07/04 12:52:58;;;;;;;6.30;5.80;;;38.20;1.00;;;;;;5041350;28;20543;-76
2021/07/04 12:55:36;;;;;;;5.63;5.03;;;38.00;1.00;;;;;;5047455;28;20586;-77
2021/07/04 12:58:21;;;;;;;6.00;5.60;;;38.50;1.00;;;;;;5045505;28;20448;-77